createdAt,value
2023-04-13T00:01:07.844Z,2.53
2023-04-13T00:03:36.228Z,2.15
2023-04-13T00:06:03.314Z,2.10
2023-04-13T00:08:30.770Z,2.80
2023-04-13T00:10:57.472Z,3.15
2023-04-13T00:13:26.844Z,3.10
2023-04-13T00:15:53.809Z,3.42
2023-04-13T00:18:20.793Z,4.07
2023-04-13T00:20:47.337Z,2.42
2023-04-13T00:23:13.838Z,4.50
2023-04-13T00:25:40.343Z,4.00
2023-04-13T00:28:06.908Z,2.40
2023-04-13T00:30:33.518Z,4.80
2023-04-13T00:33:03.735Z,3.10
2023-04-13T00:35:30.461Z,2.67
2023-04-13T00:37:58.714Z,2.03
2023-04-13T00:40:25.508Z,5.13
2023-04-13T00:42:53.170Z,3.37
2023-04-13T00:45:19.783Z,5.60
2023-04-13T00:47:48.661Z,2.75
2023-04-13T00:50:18.743Z,2.90
2023-04-13T00:52:46.448Z,2.78
2023-04-13T00:55:12.938Z,2.50
2023-04-13T00:57:40.816Z,4.35
2023-04-13T01:00:12.811Z,2.22
2023-04-13T01:02:42.829Z,2.80
2023-04-13T01:05:12.570Z,3.90
2023-04-13T01:07:51.061Z,3.03
2023-04-13T01:10:49.390Z,2.17
2023-04-13T01:13:35.104Z,3.25
2023-04-13T01:16:08.839Z,3.55
2023-04-13T01:18:40.196Z,4.50
2023-04-13T01:21:13.123Z,2.00
2023-04-13T01:23:49.828Z,1.67
2023-04-13T01:26:17.219Z,2.15
2023-04-13T01:28:47.694Z,5.00
2023-04-13T01:31:17.145Z,5.75
2023-04-13T01:33:45.340Z,6.63
2023-04-13T01:36:13.008Z,4.25
2023-04-13T01:38:39.521Z,2.72
2023-04-13T01:41:08.728Z,4.13
2023-04-13T01:43:37.793Z,6.93
2023-04-13T01:46:13.951Z,5.37
2023-04-13T01:48:56.273Z,3.35
2023-04-13T01:51:35.498Z,5.50
2023-04-13T01:54:11.006Z,5.65
2023-04-13T01:56:40.111Z,4.40
2023-04-13T01:59:07.815Z,6.53
2023-04-13T02:01:41.065Z,5.45
2023-04-13T02:04:08.096Z,3.75
2023-04-13T02:06:37.177Z,3.30
2023-04-13T02:09:09.153Z,3.78
2023-04-13T02:11:36.702Z,5.10
2023-04-13T02:14:04.888Z,5.65
2023-04-13T02:16:32.190Z,7.35
2023-04-13T02:18:58.999Z,3.13
2023-04-13T02:21:26.002Z,3.10
2023-04-13T02:23:52.704Z,4.37
2023-04-13T02:26:21.531Z,4.35
2023-04-13T02:28:50.021Z,5.13
2023-04-13T02:31:17.564Z,6.32
2023-04-13T02:33:46.289Z,4.20
2023-04-13T02:36:13.266Z,4.00
2023-04-13T02:38:48.136Z,5.22
2023-04-13T02:41:24.955Z,2.67
2023-04-13T02:43:52.280Z,5.65
2023-04-13T02:46:22.057Z,6.53
2023-04-13T02:48:53.243Z,3.30
2023-04-13T02:51:19.872Z,3.75
2023-04-13T02:53:47.232Z,3.05
2023-04-13T02:56:14.324Z,5.35
2023-04-13T02:58:41.824Z,4.40
2023-04-13T03:01:16.855Z,6.27
2023-04-13T03:03:43.418Z,4.65
2023-04-13T03:06:10.255Z,5.53
2023-04-13T03:08:51.236Z,3.95
2023-04-13T03:11:23.507Z,3.88
2023-04-13T03:14:07.534Z,2.30
2023-04-13T03:16:34.571Z,4.50
2023-04-13T03:19:03.425Z,5.22
2023-04-13T03:21:30.396Z,3.50
2023-04-13T03:24:02.721Z,5.45
2023-04-13T03:26:30.460Z,6.57
2023-04-13T03:29:00.596Z,4.80
2023-04-13T03:31:29.488Z,3.45
2023-04-13T03:33:58.509Z,3.72
2023-04-13T03:36:27.574Z,4.35
2023-04-13T03:38:55.656Z,4.07
2023-04-13T03:41:24.027Z,4.93
2023-04-13T03:43:51.038Z,5.20
2023-04-13T03:46:17.796Z,5.78
2023-04-13T03:48:44.722Z,6.30
2023-04-13T03:51:16.272Z,4.70
2023-04-13T03:53:48.497Z,4.60
2023-04-13T03:56:18.617Z,4.93
2023-04-13T03:58:45.517Z,4.63
2023-04-13T04:01:15.184Z,7.60
2023-04-13T04:03:46.243Z,4.87
2023-04-13T04:06:13.507Z,7.70
2023-04-13T04:08:49.508Z,5.53
2023-04-13T04:11:28.413Z,6.07
2023-04-13T04:13:56.078Z,6.20
2023-04-13T04:16:24.504Z,5.47
2023-04-13T04:18:58.535Z,5.88
2023-04-13T04:21:33.775Z,5.82
2023-04-13T04:24:06.410Z,10.48
2023-04-13T04:26:37.955Z,8.68
2023-04-13T04:29:07.068Z,7.80
2023-04-13T04:31:37.312Z,6.50
2023-04-13T04:34:06.673Z,5.43
2023-04-13T04:36:36.347Z,6.15
2023-04-13T04:39:04.624Z,6.90
2023-04-13T04:41:37.971Z,9.73
2023-04-13T04:44:08.998Z,7.45
2023-04-13T04:46:41.561Z,7.78
2023-04-13T04:49:11.222Z,9.45
2023-04-13T04:51:39.190Z,8.82
2023-04-13T04:54:07.311Z,9.13
2023-04-13T04:56:34.118Z,7.38
2023-04-13T04:59:00.770Z,10.32
2023-04-13T05:01:37.059Z,5.90
2023-04-13T05:04:09.792Z,8.70
2023-04-13T05:06:41.480Z,7.33
2023-04-13T05:09:10.940Z,5.97
2023-04-13T05:11:43.577Z,5.68
2023-04-13T05:14:11.728Z,9.90
2023-04-13T05:16:39.172Z,5.80
2023-04-13T05:19:13.734Z,6.30
2023-04-13T05:22:03.285Z,5.95
2023-04-13T05:24:36.279Z,6.13
2023-04-13T05:27:09.783Z,7.60
2023-04-13T05:29:36.435Z,7.20
2023-04-13T05:32:03.691Z,5.07
2023-04-13T05:34:32.680Z,7.10
2023-04-13T05:37:09.579Z,8.98
2023-04-13T05:39:36.295Z,8.93
2023-04-13T05:42:02.821Z,8.40
2023-04-13T05:44:32.597Z,8.57
2023-04-13T05:46:59.276Z,7.75
2023-04-13T05:49:26.604Z,5.22
2023-04-13T05:51:54.725Z,8.50
2023-04-13T05:54:26.812Z,7.75
2023-04-13T05:56:53.437Z,4.87
2023-04-13T05:59:19.950Z,7.75
2023-04-13T06:01:46.871Z,6.78
2023-04-13T06:04:15.825Z,5.03
2023-04-13T06:06:42.445Z,9.90
2023-04-13T06:09:08.889Z,9.43
2023-04-13T06:11:35.715Z,8.50
2023-04-13T06:14:03.110Z,7.15
2023-04-13T06:16:29.663Z,7.70
2023-04-13T06:18:56.725Z,7.47
2023-04-13T06:21:27.671Z,4.53
2023-04-13T06:23:54.196Z,5.18
2023-04-13T06:26:28.956Z,5.68
2023-04-13T06:28:56.885Z,6.78
2023-04-13T06:31:27.526Z,8.25
2023-04-13T06:33:56.728Z,6.13
2023-04-13T06:36:27.959Z,6.70
2023-04-13T06:38:56.472Z,4.90
2023-04-13T06:41:23.036Z,6.25
2023-04-13T06:43:50.856Z,6.75
2023-04-13T06:46:33.536Z,12.87
2023-04-13T06:49:07.459Z,10.65
2023-04-13T06:51:34.907Z,8.45
2023-04-13T06:54:01.540Z,11.25
2023-04-13T06:56:28.094Z,11.82
2023-04-13T06:59:00.798Z,13.33
2023-04-13T07:01:28.903Z,10.02
2023-04-13T07:03:56.531Z,7.72
2023-04-13T07:06:23.654Z,7.00
2023-04-13T07:08:52.228Z,8.23
2023-04-13T07:11:19.138Z,8.63
2023-04-13T07:13:47.273Z,9.25
2023-04-13T07:16:15.131Z,9.82
2023-04-13T07:18:44.701Z,12.88
2023-04-13T07:21:11.633Z,7.60
2023-04-13T07:23:56.142Z,7.53
2023-04-13T07:26:23.321Z,8.50
2023-04-13T07:28:50.369Z,7.47
2023-04-13T07:31:18.059Z,8.27
2023-04-13T07:33:47.774Z,7.10
2023-04-13T07:36:17.637Z,6.23
2023-04-13T07:38:48.486Z,10.32
2023-04-13T07:41:21.982Z,6.72
2023-04-13T07:43:51.457Z,7.68
2023-04-13T07:46:18.048Z,5.18
2023-04-13T07:48:44.848Z,11.63
2023-04-13T07:51:23.117Z,3.83
2023-04-13T07:53:52.516Z,4.95
2023-04-13T07:56:19.689Z,5.95
2023-04-13T07:58:46.625Z,3.13
2023-04-13T08:01:13.098Z,2.87
2023-04-13T08:03:39.772Z,3.72
2023-04-13T08:06:13.620Z,8.05
2023-04-13T08:08:40.494Z,8.52
2023-04-13T08:11:08.646Z,22.27
2023-04-13T08:13:35.836Z,16.10
2023-04-13T08:16:02.720Z,3.35
2023-04-13T08:18:32.070Z,3.17
2023-04-13T08:20:58.951Z,5.45
2023-04-13T08:23:28.403Z,3.08
2023-04-13T08:25:56.932Z,13.57
2023-04-13T08:28:23.432Z,4.85
2023-04-13T08:30:50.024Z,4.75
2023-04-13T08:33:16.779Z,5.38
2023-04-13T08:35:43.380Z,4.30
2023-04-13T08:38:12.538Z,6.73
2023-04-13T08:40:44.115Z,4.93
2023-04-13T08:43:15.145Z,4.15
2023-04-13T08:45:44.814Z,10.30
2023-04-13T08:48:13.915Z,3.95
2023-04-13T08:50:42.569Z,4.37
2023-04-13T08:53:10.198Z,4.43
2023-04-13T08:55:43.469Z,6.47
2023-04-13T08:58:12.295Z,6.38
2023-04-13T09:00:41.985Z,3.95
2023-04-13T09:03:14.135Z,4.53
2023-04-13T09:05:45.694Z,7.05
2023-04-13T09:08:14.112Z,5.30
2023-04-13T09:10:43.931Z,5.45
2023-04-13T09:13:11.129Z,6.70
2023-04-13T09:15:38.822Z,12.83
2023-04-13T09:18:13.623Z,7.90
2023-04-13T09:20:58.968Z,10.75
2023-04-13T09:23:26.174Z,8.15
2023-04-13T09:26:08.739Z,9.90
2023-04-13T09:28:45.993Z,14.40
2023-04-13T09:31:13.610Z,8.35
2023-04-13T09:33:47.756Z,10.50
2023-04-13T09:36:16.581Z,10.98
2023-04-13T09:38:45.779Z,9.95
2023-04-13T09:41:12.295Z,8.97
2023-04-13T09:43:39.775Z,16.85
2023-04-13T09:46:14.185Z,8.45
2023-04-13T09:48:41.122Z,7.43
2023-04-13T09:51:08.656Z,10.77
2023-04-13T09:53:49.192Z,7.20
2023-04-13T09:56:17.095Z,9.60
2023-04-13T09:58:45.434Z,13.05
2023-04-13T10:01:12.714Z,12.27
2023-04-13T10:03:39.372Z,11.10
2023-04-13T10:06:09.728Z,8.57
2023-04-13T10:08:41.953Z,9.88
2023-04-13T10:11:15.598Z,11.52
2023-04-13T10:13:56.892Z,6.57
2023-04-13T10:16:27.148Z,11.95
2023-04-13T10:19:02.529Z,11.43
2023-04-13T10:21:35.461Z,12.70
2023-04-13T10:26:37.722Z,8.23
2023-04-13T10:29:04.812Z,6.85
2023-04-13T10:31:51.400Z,7.13
2023-04-13T10:34:32.026Z,7.20
2023-04-13T10:37:03.047Z,8.15
2023-04-13T10:39:32.214Z,6.72
2023-04-13T10:42:06.475Z,8.48
2023-04-13T10:44:47.497Z,8.77
2023-04-13T10:47:16.095Z,6.68
2023-04-13T10:49:43.958Z,12.00
2023-04-13T10:52:11.587Z,10.25
2023-04-13T10:54:39.789Z,6.65
2023-04-13T10:57:08.980Z,9.60
2023-04-13T10:59:55.572Z,9.98
2023-04-13T11:02:26.117Z,7.13
2023-04-13T11:07:21.832Z,11.02
2023-04-13T11:09:50.494Z,8.30
2023-04-13T11:12:20.210Z,8.13
2023-04-13T11:14:48.076Z,8.93
2023-04-13T11:17:16.659Z,10.18
2023-04-13T11:19:51.225Z,9.80
2023-04-13T11:22:19.515Z,10.13
2023-04-13T11:24:47.478Z,9.85
2023-04-13T11:27:23.068Z,9.15
2023-04-13T11:29:59.850Z,9.00
2023-04-13T11:32:26.755Z,9.93
2023-04-13T11:34:53.210Z,11.50
2023-04-13T11:37:19.768Z,10.40
2023-04-13T11:39:46.452Z,9.45
2023-04-13T11:42:13.460Z,9.77
2023-04-13T11:44:40.083Z,15.95
2023-04-13T11:47:08.734Z,14.47
2023-04-13T11:49:36.021Z,9.70
2023-04-13T11:52:03.258Z,20.20
2023-04-13T11:54:30.369Z,9.18
2023-04-13T11:56:57.541Z,11.55
2023-04-13T11:59:24.871Z,8.43
2023-04-13T12:02:01.581Z,10.38
2023-04-13T12:04:38.333Z,11.70
2023-04-13T12:07:11.474Z,10.32
2023-04-13T12:15:09.975Z,7.75
2023-04-13T12:17:44.001Z,12.32
2023-04-13T12:20:16.854Z,10.88
2023-04-13T12:25:17.831Z,10.60
2023-04-13T12:27:44.804Z,12.82
2023-04-13T12:30:12.869Z,13.00
2023-04-13T12:32:41.898Z,8.20
2023-04-13T12:35:09.127Z,9.13
2023-04-13T12:37:45.861Z,9.77
2023-04-13T12:40:15.587Z,9.00
2023-04-13T12:42:46.557Z,8.55
2023-04-13T12:45:14.083Z,9.90
2023-04-13T12:47:41.590Z,7.15
2023-04-13T12:50:10.516Z,7.23
2023-04-13T12:52:38.482Z,12.10
2023-04-13T12:55:05.611Z,9.32
2023-04-13T12:57:32.634Z,8.43
2023-04-13T12:59:59.341Z,6.68
2023-04-13T13:02:30.986Z,9.23
2023-04-13T13:04:59.061Z,6.43
2023-04-13T13:07:25.628Z,8.18
2023-04-13T13:09:52.336Z,10.65
2023-04-13T13:12:18.953Z,9.40
2023-04-13T13:14:45.390Z,10.90
2023-04-13T13:17:11.904Z,7.05
2023-04-13T13:19:38.443Z,9.48
2023-04-13T13:22:04.944Z,10.25
2023-04-13T13:24:31.853Z,7.60
2023-04-13T13:29:33.106Z,10.55
2023-04-13T13:32:00.419Z,8.70
2023-04-13T13:34:27.181Z,11.32
2023-04-13T13:36:54.041Z,7.43
2023-04-13T13:39:22.169Z,6.37
2023-04-13T13:41:49.012Z,6.57
2023-04-13T13:44:16.349Z,10.23
2023-04-13T13:46:42.913Z,9.73
2023-04-13T13:49:09.870Z,11.90
2023-04-13T13:51:54.303Z,9.50
2023-04-13T13:54:24.160Z,7.50
2023-04-13T13:56:51.348Z,9.32
2023-04-13T13:59:18.306Z,7.65
2023-04-13T14:01:44.900Z,10.73
2023-04-13T14:04:12.478Z,6.87
2023-04-13T14:06:39.031Z,6.43
2023-04-13T14:09:06.500Z,7.50
2023-04-13T14:11:33.297Z,19.02
2023-04-13T14:14:11.143Z,10.20
2023-04-13T14:16:45.545Z,8.07
2023-04-13T14:19:12.362Z,7.47
2023-04-13T14:21:39.040Z,7.88
2023-04-13T14:24:05.954Z,8.57
2023-04-13T14:26:32.501Z,12.60
2023-04-13T14:28:59.090Z,8.43
2023-04-13T14:31:25.812Z,10.70
2023-04-13T14:33:52.351Z,9.82
2023-04-13T14:36:19.198Z,8.05
2023-04-13T14:38:45.702Z,7.63
2023-04-13T14:41:12.201Z,9.63
2023-04-13T14:43:38.829Z,6.18
2023-04-13T14:46:05.572Z,9.00
2023-04-13T14:48:32.807Z,6.20
2023-04-13T14:50:59.963Z,3.55
2023-04-13T14:53:26.515Z,7.17
2023-04-13T14:55:53.012Z,6.78
2023-04-13T14:58:19.516Z,7.82
2023-04-13T15:00:46.025Z,7.10
2023-04-13T15:03:13.125Z,5.82
2023-04-13T15:05:41.621Z,5.13
2023-04-13T15:08:08.581Z,7.47
2023-04-13T15:10:35.182Z,6.10
2023-04-13T15:13:06.438Z,5.00
2023-04-13T15:15:35.135Z,4.18
2023-04-13T15:18:03.049Z,4.93
2023-04-13T15:20:30.566Z,6.53
2023-04-13T15:22:57.829Z,6.10
2023-04-13T15:25:25.322Z,5.15
2023-04-13T15:27:53.099Z,5.22
2023-04-13T15:30:31.183Z,6.80
2023-04-13T15:33:02.197Z,7.95
2023-04-13T15:35:29.365Z,4.57
2023-04-13T15:37:55.955Z,8.48
2023-04-13T15:40:26.811Z,6.10
2023-04-13T15:42:53.541Z,6.07
2023-04-13T15:45:20.977Z,4.40
2023-04-13T15:47:47.517Z,7.95
2023-04-13T15:50:14.176Z,7.47
2023-04-13T15:52:40.808Z,6.93
2023-04-13T15:55:08.135Z,7.80
2023-04-13T15:57:35.442Z,6.63
2023-04-13T16:00:04.375Z,6.28
2023-04-13T16:02:32.284Z,6.65
2023-04-13T16:04:59.058Z,6.57
2023-04-13T16:07:25.705Z,5.03
2023-04-13T16:09:58.446Z,5.55
2023-04-13T16:12:31.926Z,6.95
2023-04-13T16:15:07.843Z,8.48
2023-04-13T16:17:34.772Z,5.07
2023-04-13T16:20:17.450Z,7.23
2023-04-13T16:22:49.125Z,5.20
2023-04-13T16:25:17.941Z,6.63
2023-04-13T16:27:45.935Z,4.88
2023-04-13T16:30:13.330Z,5.38
2023-04-13T16:32:46.738Z,6.53
2023-04-13T16:35:13.528Z,7.18
2023-04-13T16:37:43.587Z,5.53
2023-04-13T16:40:11.179Z,5.95
2023-04-13T16:42:39.074Z,6.40
2023-04-13T16:45:07.458Z,5.03
2023-04-13T16:47:34.148Z,4.82
2023-04-13T16:50:00.801Z,6.78
2023-04-13T16:52:27.287Z,7.38
2023-04-13T16:54:54.024Z,8.23
2023-04-13T16:57:20.622Z,6.03
2023-04-13T16:59:47.181Z,3.63
2023-04-13T17:02:28.367Z,7.05
2023-04-13T17:04:57.430Z,6.95
2023-04-13T17:07:26.642Z,7.53
2023-04-13T17:09:53.181Z,6.80
2023-04-13T17:12:19.729Z,5.90
2023-04-13T17:14:46.599Z,4.68
2023-04-13T17:17:13.164Z,6.18
2023-04-13T17:19:39.767Z,6.50
2023-04-13T17:22:06.600Z,5.53
2023-04-13T17:24:33.601Z,5.78
2023-04-13T17:27:00.124Z,6.00
2023-04-13T17:29:26.905Z,6.78
2023-04-13T17:31:53.473Z,8.38
2023-04-13T17:34:20.109Z,7.03
2023-04-13T17:36:46.727Z,10.10
2023-04-13T17:39:13.329Z,8.23
2023-04-13T17:41:41.624Z,8.80
2023-04-13T17:44:08.153Z,6.15
2023-04-13T17:46:34.595Z,9.00
2023-04-13T17:49:01.854Z,4.55
2023-04-13T17:51:29.881Z,5.45
2023-04-13T17:53:56.638Z,7.22
2023-04-13T17:56:23.136Z,7.95
2023-04-13T17:58:49.558Z,4.03
2023-04-13T18:01:16.195Z,7.22
2023-04-13T18:03:43.091Z,5.63
2023-04-13T18:06:10.256Z,4.95
2023-04-13T18:08:36.808Z,6.07
2023-04-13T18:11:03.288Z,4.13
2023-04-13T18:13:31.475Z,6.53
2023-04-13T18:15:58.240Z,5.45
2023-04-13T18:18:25.096Z,6.97
2023-04-13T18:20:52.569Z,6.45
2023-04-13T18:23:19.973Z,6.83
2023-04-13T18:25:51.044Z,4.28
2023-04-13T18:28:17.743Z,5.22
2023-04-13T18:30:45.156Z,5.22
2023-04-13T18:33:12.520Z,5.80
2023-04-13T18:35:43.780Z,6.23
2023-04-13T18:38:10.507Z,4.35
2023-04-13T18:40:37.252Z,8.25
2023-04-13T18:43:03.730Z,5.28
2023-04-13T18:45:30.559Z,7.80
2023-04-13T18:47:57.107Z,5.07
2023-04-13T18:50:23.637Z,6.20
2023-04-13T18:52:50.127Z,4.65
2023-04-13T18:55:16.758Z,7.05
2023-04-13T18:57:43.324Z,7.70
2023-04-13T19:00:13.420Z,7.40
2023-04-13T19:02:46.391Z,5.97
2023-04-13T19:05:13.607Z,6.97
2023-04-13T19:07:40.362Z,7.38
2023-04-13T19:10:07.150Z,9.30
2023-04-13T19:12:34.702Z,8.20
2023-04-13T19:15:01.561Z,10.02
2023-04-13T19:17:28.181Z,7.25
2023-04-13T19:19:55.557Z,8.25
2023-04-13T19:22:22.443Z,14.98
2023-04-13T19:24:49.332Z,9.37
2023-04-13T19:27:15.847Z,7.78
2023-04-13T19:29:42.353Z,6.10
2023-04-13T19:32:11.912Z,12.27
2023-04-13T19:34:38.552Z,9.13
2023-04-13T19:37:05.236Z,11.57
2023-04-13T19:39:32.086Z,8.23
2023-04-13T19:41:58.643Z,7.03
2023-04-13T19:44:25.969Z,8.60
2023-04-13T19:46:52.466Z,9.75
2023-04-13T19:49:18.947Z,7.27
2023-04-13T19:51:46.342Z,9.00
2023-04-13T19:54:13.508Z,8.38
2023-04-13T19:56:39.981Z,8.40
2023-04-13T19:59:06.626Z,8.95
2023-04-13T20:01:33.670Z,12.17
2023-04-13T20:04:02.114Z,16.13
2023-04-13T20:06:29.172Z,9.98
2023-04-13T20:09:06.799Z,13.65
2023-04-13T20:11:34.654Z,11.70
2023-04-13T20:14:01.458Z,14.50
2023-04-13T20:16:28.185Z,11.85
2023-04-13T20:18:54.665Z,12.30
2023-04-13T20:21:21.452Z,10.85
2023-04-13T20:23:47.918Z,11.02
2023-04-13T20:26:14.414Z,10.60
2023-04-13T20:28:40.883Z,14.68
2023-04-13T20:31:08.306Z,11.43
2023-04-13T20:33:34.874Z,11.88
2023-04-13T20:36:01.586Z,8.93
2023-04-13T20:38:29.941Z,10.43
2023-04-13T20:40:57.165Z,11.05
2023-04-13T20:43:24.173Z,7.80
2023-04-13T20:45:51.492Z,11.05
2023-04-13T20:50:47.854Z,12.37
2023-04-13T20:53:16.483Z,10.43
2023-04-13T20:55:43.078Z,7.57
2023-04-13T20:58:10.650Z,8.88
2023-04-13T21:00:37.201Z,6.95
2023-04-13T21:03:04.240Z,8.50
2023-04-13T21:05:31.066Z,7.80
2023-04-13T21:07:57.590Z,7.88
2023-04-13T21:10:24.160Z,8.32
2023-04-13T21:12:50.711Z,4.90
2023-04-13T21:15:17.200Z,7.60
2023-04-13T21:17:43.825Z,4.22
2023-04-13T21:20:11.125Z,5.80
2023-04-13T21:22:37.686Z,7.03
2023-04-13T21:25:05.322Z,5.72
2023-04-13T21:27:32.268Z,6.73
2023-04-13T21:29:59.435Z,6.78
2023-04-13T21:32:26.148Z,4.03
2023-04-13T21:34:54.913Z,6.47
2023-04-13T21:37:21.828Z,6.57
2023-04-13T21:39:48.332Z,10.03
2023-04-13T21:42:16.780Z,5.68
2023-04-13T21:44:43.295Z,6.05
2023-04-13T21:47:09.804Z,8.25
2023-04-13T21:49:36.359Z,8.10
2023-04-13T21:52:02.805Z,3.77
2023-04-13T21:54:29.331Z,3.15
2023-04-13T21:56:55.816Z,3.90
2023-04-13T21:59:27.062Z,5.20
2023-04-13T22:01:54.535Z,6.68
2023-04-13T22:04:21.136Z,7.33
2023-04-13T22:06:47.829Z,4.80
2023-04-13T22:09:14.326Z,4.40
2023-04-13T22:11:41.031Z,2.97
2023-04-13T22:14:07.566Z,2.72
2023-04-13T22:16:34.089Z,3.77
2023-04-13T22:19:00.721Z,3.65
2023-04-13T22:21:27.687Z,4.88
2023-04-13T22:23:54.300Z,4.93
2023-04-13T22:26:20.911Z,3.75
2023-04-13T22:28:47.372Z,3.07
2023-04-13T22:31:14.037Z,4.63
2023-04-13T22:33:40.843Z,4.13
2023-04-13T22:36:17.426Z,6.47
2023-04-13T22:38:44.593Z,4.28
2023-04-13T22:41:12.523Z,6.00
2023-04-13T22:43:39.853Z,3.45
2023-04-13T22:46:06.398Z,5.75
2023-04-13T22:48:32.892Z,3.65
2023-04-13T22:51:03.638Z,4.88
2023-04-13T22:53:30.470Z,4.80
2023-04-13T22:55:57.165Z,3.65
2023-04-13T22:58:23.756Z,3.90
2023-04-13T23:00:50.322Z,6.38
2023-04-13T23:03:17.258Z,5.43
2023-04-13T23:05:43.771Z,6.33
2023-04-13T23:08:10.490Z,6.18
2023-04-13T23:10:37.297Z,3.05
2023-04-13T23:13:04.665Z,4.20
2023-04-13T23:15:31.155Z,4.32
2023-04-13T23:17:57.662Z,3.47
2023-04-13T23:20:24.222Z,3.63
2023-04-13T23:22:50.714Z,3.33
2023-04-13T23:25:17.349Z,7.45
2023-04-13T23:27:43.999Z,7.85
2023-04-13T23:30:11.149Z,7.17
2023-04-13T23:32:37.658Z,6.15
2023-04-13T23:35:04.855Z,9.68
2023-04-13T23:37:31.329Z,5.18
2023-04-13T23:39:57.816Z,5.30
2023-04-13T23:42:24.249Z,4.80
2023-04-13T23:44:50.875Z,6.75
2023-04-13T23:47:17.496Z,3.95
2023-04-13T23:49:46.399Z,4.95
2023-04-13T23:52:13.252Z,6.97
2023-04-13T23:54:39.693Z,5.77
2023-04-13T23:57:06.492Z,3.88
2023-04-13T23:59:33.002Z,3.95
